Time;durP1;ratioP1;P1;durP2;ratioP2;P2;SDS_P1;SDS_P2;PMS_P1;PMS_P2;Temp;Humidity;BMP_temperature;BMP_pressure;BME280_temperature;BME280_humidity;BME280_pressure;Samples;Min_cycle;Max_cycle;Signal;HPM_P1;HPM_P2
2021/01/06 00:01:17;;;;;;;30.13;19.52;;;;;;;7.73;61.71;101676.28;4915741;28;114447;-66
2021/01/06 00:03:43;;;;;;;30.65;19.70;;;;;;;7.71;61.90;101678.94;4933966;28;114961;-66
2021/01/06 00:06:13;;;;;;;33.28;20.05;;;;;;;7.73;61.67;101678.91;4888635;28;122883;-67
2021/01/06 00:08:44;;;;;;;29.60;18.50;;;;;;;7.71;62.15;101678.06;4933880;28;124471;-67
2021/01/06 00:11:12;;;;;;;31.65;19.23;;;;;;;7.72;61.87;101674.50;4912722;28;113161;-67
2021/01/06 00:13:39;;;;;;;29.77;18.83;;;;;;;7.71;62.24;101678.94;4933200;28;114738;-67
2021/01/06 00:16:06;;;;;;;29.77;19.17;;;;;;;7.71;61.92;101667.53;4913108;28;124232;-67
2021/01/06 00:18:32;;;;;;;31.30;20.10;;;;;;;7.74;62.07;101672.72;4916407;28;122812;-67
2021/01/06 00:20:59;;;;;;;33.28;20.27;;;;;;;7.73;61.94;101671.00;4929679;28;114195;-67
2021/01/06 00:23:26;;;;;;;34.10;20.77;;;;;;;7.72;61.95;101675.41;4933529;28;114006;-67
2021/01/06 00:25:52;;;;;;;32.70;20.20;;;;;;;7.72;62.26;101677.16;4930767;28;124390;-67
2021/01/06 00:28:21;;;;;;;30.77;20.35;;;;;;;7.73;62.05;101668.34;4933634;28;122993;-67
2021/01/06 00:30:49;;;;;;;33.80;19.90;;;;;;;7.72;62.14;101663.97;4914115;28;114423;-67
2021/01/06 00:33:19;;;;;;;32.67;19.48;;;;;;;7.70;62.19;101666.63;4915857;28;113833;-67
2021/01/06 00:36:00;;;;;;;31.98;19.38;;;;;;;7.69;61.95;101669.31;4928957;28;125335;-66
2021/01/06 00:38:29;;;;;;;29.75;20.13;;;;;;;7.67;62.21;101660.56;4932044;28;124044;-67
2021/01/06 00:40:56;;;;;;;32.17;19.48;;;;;;;7.65;62.26;101657.06;4915460;28;113041;-67
2021/01/06 00:43:23;;;;;;;31.95;19.58;;;;;;;7.63;62.40;101665.03;4912755;28;113932;-68
2021/01/06 00:45:50;;;;;;;32.53;20.25;;;;;;;7.63;62.34;101661.50;4910835;28;123153;-66
2021/01/06 00:48:18;;;;;;;31.77;19.92;;;;;;;7.64;62.27;101660.63;4891882;28;123599;-67
2021/01/06 00:50:45;;;;;;;28.52;18.83;;;;;;;7.64;62.26;101661.50;4914685;28;114347;-67
2021/01/06 00:53:15;;;;;;;30.13;18.90;;;;;;;7.65;62.53;101654.44;4914830;28;113762;-67
2021/01/06 00:55:44;;;;;;;32.08;18.98;;;;;;;7.65;62.33;101655.34;4910127;28;123116;-67
2021/01/06 00:58:12;;;;;;;30.98;19.13;;;;;;;7.66;62.19;101653.56;4913040;28;124320;-67
2021/01/06 01:00:39;;;;;;;29.98;19.60;;;;;;;7.65;62.42;101657.06;4913509;28;113175;-67
2021/01/06 01:03:11;;;;;;;28.77;18.55;;;;;;;7.63;62.18;101658.88;4909648;28;113693;-66
2021/01/06 01:05:38;;;;;;;28.05;17.02;;;;;;;7.62;62.18;101651.88;4915684;28;123534;-66
2021/01/06 01:08:07;;;;;;;27.92;17.63;;;;;;;7.60;62.35;101654.53;4932046;28;124724;-68
2021/01/06 01:10:44;;;;;;;30.55;17.88;;;;;;;7.58;62.48;101651.94;4930466;28;114409;-66
2021/01/06 01:13:15;;;;;;;29.10;18.10;;;;;;;7.55;62.33;101649.38;4914544;28;114449;-66
2021/01/06 01:15:45;;;;;;;26.75;17.52;;;;;;;7.54;62.44;101650.25;4929794;28;123905;-66
2021/01/06 01:18:21;;;;;;;26.42;16.83;;;;;;;7.53;62.45;101651.16;4910995;28;124166;-66
2021/01/06 01:20:53;;;;;;;29.77;17.75;;;;;;;7.53;62.61;101648.50;4927726;28;114708;-67
2021/01/06 01:23:22;;;;;;;27.00;16.80;;;;;;;7.53;62.66;101643.22;4932656;28;114303;-67
2021/01/06 01:25:49;;;;;;;26.48;16.33;;;;;;;7.54;62.29;101650.25;4912303;28;123977;-66
2021/01/06 01:28:19;;;;;;;27.50;16.85;;;;;;;7.53;62.66;101648.50;4929625;28;123949;-67
2021/01/06 01:30:45;;;;;;;26.30;18.50;;;;;;;7.52;62.44;101646.78;4933780;28;114304;-66
2021/01/06 01:33:13;;;;;;;26.15;17.35;;;;;;;7.51;62.28;101645.03;4912112;28;115203;-66
2021/01/06 01:35:39;;;;;;;24.80;16.65;;;;;;;7.52;62.43;101645.94;4925479;28;124733;-66
2021/01/06 01:38:07;;;;;;;28.73;17.13;;;;;;;7.51;62.60;101645.03;4927141;28;123889;-66
2021/01/06 01:40:36;;;;;;;29.73;16.98;;;;;;;7.50;62.47;101643.31;4932630;28;115554;-66
2021/01/06 01:43:13;;;;;;;29.02;16.77;;;;;;;7.49;62.49;101645.97;4911052;28;113580;-66
2021/01/06 01:46:00;;;;;;;30.58;16.95;;;;;;;7.47;62.82;101647.78;4932732;28;124234;-66
2021/01/06 01:48:32;;;;;;;29.98;16.58;;;;;;;7.47;62.66;101643.38;4926439;28;124579;-66
2021/01/06 01:51:13;;;;;;;33.78;18.08;;;;;;;7.46;62.63;101652.19;4913209;28;112843;-67
2021/01/06 01:53:51;;;;;;;30.23;16.95;;;;;;;7.44;62.49;101643.44;4930226;28;114081;-67
2021/01/06 01:56:21;;;;;;;31.92;17.67;;;;;;;7.44;63.01;101643.44;4924965;28;123354;-66
2021/01/06 01:58:52;;;;;;;31.67;17.02;;;;;;;7.45;62.68;101645.16;4910132;28;123782;-66
2021/01/06 02:01:20;;;;;;;31.42;17.38;;;;;;;7.45;62.86;101644.31;4909981;28;113638;-66
2021/01/06 02:03:54;;;;;;;29.77;17.63;;;;;;;7.43;62.58;101646.97;4928502;28;115191;-66
2021/01/06 02:06:38;;;;;;;31.90;17.48;;;;;;;7.44;62.67;101648.72;4931744;28;124518;-66
2021/01/06 02:09:13;;;;;;;29.40;16.98;;;;;;;7.41;63.10;101648.75;4925062;28;123720;-66
2021/01/06 02:11:44;;;;;;;27.30;15.67;;;;;;;7.42;62.78;101650.47;4915053;28;113331;-66
2021/01/06 02:14:18;;;;;;;30.33;17.23;;;;;;;7.42;62.93;101645.22;4913819;28;112961;-66
2021/01/06 02:16:58;;;;;;;30.85;16.38;;;;;;;7.42;62.83;101642.56;4912833;28;123378;-66
2021/01/06 02:19:37;;;;;;;31.58;17.23;;;;;;;7.42;63.11;101645.22;4923177;28;123972;-66
2021/01/06 02:22:06;;;;;;;26.42;15.90;;;;;;;7.41;62.72;101648.75;4913036;28;113323;-66
2021/01/06 02:24:34;;;;;;;29.02;16.73;;;;;;;7.40;63.23;101644.38;4932233;28;114866;-67
2021/01/06 02:27:03;;;;;;;28.17;15.73;;;;;;;7.41;62.69;101648.75;4914493;28;123300;-67
2021/01/06 02:29:31;;;;;;;28.42;16.70;;;;;;;7.40;62.95;101641.72;4923355;28;124175;-66
2021/01/06 02:31:58;;;;;;;30.65;16.25;;;;;;;7.42;62.96;101645.22;4926568;28;115253;-66
2021/01/06 02:34:25;;;;;;;30.92;16.92;;;;;;;7.42;62.73;101650.47;4931713;28;116148;-66
2021/01/06 02:36:53;;;;;;;30.55;16.10;;;;;;;7.41;62.69;101648.75;4913787;28;123075;-66
2021/01/06 02:39:20;;;;;;;26.20;16.33;;;;;;;7.40;62.91;101652.28;4925421;28;123732;-66
2021/01/06 02:41:54;;;;;;;31.10;15.57;;;;;;;7.39;62.63;101650.56;4927019;28;115096;-67
2021/01/06 02:44:21;;;;;;;29.02;17.13;;;;;;;7.40;62.91;101652.28;4920358;28;112812;-69
2021/01/06 02:46:49;;;;;;;28.58;16.02;;;;;;;7.39;62.86;101655.81;4931487;28;124224;-69
2021/01/06 02:49:16;;;;;;;32.30;16.25;;;;;;;7.38;62.98;101654.06;4932195;28;124793;-69
2021/01/06 02:52:06;;;;;;;27.65;17.13;;;;;;;7.38;62.93;101654.06;4931616;28;114278;-69
2021/01/06 02:54:36;;;;;;;26.80;15.32;;;;;;;7.36;62.65;101650.59;4911208;28;114274;-69
2021/01/06 02:57:05;;;;;;;27.17;15.18;;;;;;;7.35;62.99;101660.28;4911264;28;124112;-69
2021/01/06 02:59:37;;;;;;;27.15;16.20;;;;;;;7.35;62.59;101651.53;4895075;28;123752;-69
2021/01/06 03:02:05;;;;;;;25.98;15.75;;;;;;;7.33;62.90;101650.69;4907884;28;113793;-69
2021/01/06 03:04:36;;;;;;;27.05;16.45;;;;;;;7.31;62.92;101648.06;4911423;28;114105;-69
2021/01/06 03:07:06;;;;;;;28.98;16.95;;;;;;;7.31;62.96;101652.44;4907529;28;124125;-69
2021/01/06 03:09:37;;;;;;;27.88;18.60;;;;;;;7.32;62.66;101648.94;4911374;28;124628;-69
2021/01/06 03:12:12;;;;;;;27.83;16.23;;;;;;;7.31;63.03;101655.09;4910254;28;114242;-69
2021/01/06 03:14:40;;;;;;;27.85;15.15;;;;;;;7.31;63.17;101652.44;4910595;28;114125;-69
2021/01/06 03:17:09;;;;;;;28.75;15.85;;;;;;;7.29;62.86;101654.25;4911384;28;123903;-69
2021/01/06 03:19:41;;;;;;;26.80;16.58;;;;;;;7.28;62.65;101652.53;4910884;28;124824;-69
2021/01/06 03:22:09;;;;;;;27.95;16.48;;;;;;;7.28;63.06;101652.53;4887634;28;115970;-69
2021/01/06 03:24:46;;;;;;;28.38;15.73;;;;;;;7.25;63.11;101648.16;4910911;28;114720;-69
2021/01/06 03:27:13;;;;;;;27.65;15.98;;;;;;;7.26;62.78;101643.78;4890868;28;123931;-69
2021/01/06 03:29:42;;;;;;;26.20;15.75;;;;;;;7.26;62.96;101649.06;4891310;28;123310;-69
2021/01/06 03:32:18;;;;;;;26.52;16.52;;;;;;;7.27;62.97;101645.50;4907835;28;114271;-69
2021/01/06 03:34:48;;;;;;;;;;;;;;;7.27;62.60;101648.13;4901781;28;114278;-69
2021/01/06 03:37:30;;;;;;;27.67;14.68;;;;;;;7.27;62.58;101640.22;4893900;28;123866;-69
2021/01/06 03:40:07;;;;;;;23.50;14.82;;;;;;;7.28;62.76;101648.13;4911151;28;124664;-69
2021/01/06 03:42:35;;;;;;;24.95;15.18;;;;;;;7.28;62.54;101644.63;4890543;28;113527;-69
2021/01/06 03:45:04;;;;;;;25.42;15.98;;;;;;;7.27;62.52;101634.97;4895160;28;112144;-68
2021/01/06 03:47:36;;;;;;;24.35;15.13;;;;;;;7.26;62.73;101638.50;4910599;28;123566;-68
2021/01/06 03:50:46;;;;;;;27.05;16.25;;;;;;;7.25;62.47;101631.50;4906979;28;123800;-68
2021/01/06 03:53:27;;;;;;;25.40;15.45;;;;;;;7.27;62.65;101634.97;4912833;28;115160;-68
2021/01/06 03:55:58;;;;;;;26.15;14.93;;;;;;;7.28;62.68;101634.06;4912747;28;114258;-68
2021/01/06 03:58:49;;;;;;;24.73;16.23;;;;;;;7.27;62.48;101640.22;4908487;28;123320;-68
2021/01/06 04:01:43;;;;;;;26.90;15.50;;;;;;;7.26;62.77;101625.34;4913720;28;123636;-69
2021/01/06 04:04:26;;;;;;;26.00;15.48;;;;;;;7.26;62.64;101630.59;4914335;28;114300;-68
2021/01/06 04:06:56;;;;;;;27.30;14.82;;;;;;;7.27;62.65;101629.69;4900235;28;114407;-69
2021/01/06 04:09:38;;;;;;;24.05;14.98;;;;;;;7.27;62.64;101624.41;4914382;28;124265;-68
2021/01/06 04:12:10;;;;;;;23.40;15.85;;;;;;;7.26;62.32;101622.69;4911174;28;124614;-68
2021/01/06 04:14:38;;;;;;;27.83;15.55;;;;;;;7.26;62.49;101622.69;4913618;28;115085;-68
2021/01/06 04:17:29;;;;;;;26.95;15.40;;;;;;;7.24;62.75;101625.34;4897054;28;114938;-68
2021/01/06 04:20:03;;;;;;;24.98;15.00;;;;;;;7.25;62.40;101621.81;4913863;28;125011;-71
2021/01/06 04:22:47;;;;;;;25.23;14.85;;;;;;;7.24;62.43;101619.22;4894686;28;123989;-69
2021/01/06 04:25:32;;;;;;;25.38;15.07;;;;;;;7.21;62.33;101615.75;4896460;28;113321;-68
2021/01/06 04:28:02;;;;;;;24.70;15.00;;;;;;;7.19;62.54;101614.88;4913748;28;114849;-68
2021/01/06 04:30:33;;;;;;;23.02;14.68;;;;;;;7.19;62.63;101617.53;4896636;28;124979;-68
2021/01/06 04:33:07;;;;;;;24.80;14.43;;;;;;;7.19;62.74;101614.88;4890341;28;122824;-68
2021/01/06 04:35:34;;;;;;;23.70;14.88;;;;;;;7.18;62.33;101621.06;4913191;28;114260;-68
2021/01/06 04:38:01;;;;;;;24.05;14.02;;;;;;;7.18;62.44;101621.06;4913802;28;113593;-69
2021/01/06 04:40:37;;;;;;;24.75;15.20;;;;;;;7.18;62.38;101610.53;4911950;28;124289;-69
2021/01/06 04:43:37;;;;;;;21.15;14.15;;;;;;;7.16;62.24;101612.34;4911575;28;122869;-68
2021/01/06 04:46:22;;;;;;;22.75;14.57;;;;;;;7.14;62.46;101614.13;4897283;28;114760;-68
2021/01/06 04:49:15;;;;;;;22.08;13.13;;;;;;;7.13;62.60;101616.78;4912777;28;114402;-68
2021/01/06 04:51:53;;;;;;;20.35;13.55;;;;;;;7.14;62.63;101607.97;4896192;28;123017;-68
2021/01/06 04:54:25;;;;;;;21.95;13.02;;;;;;;7.14;62.41;101608.84;4912152;28;124748;-69
2021/01/06 04:57:14;;;;;;;19.73;13.45;;;;;;;7.11;62.45;101598.38;4895980;28;113762;-68
2021/01/06 05:00:16;;;;;;;21.65;13.93;;;;;;;7.07;62.40;101601.97;4914667;28;116896;-68
2021/01/06 05:03:17;;;;;;;20.70;13.18;;;;;;;7.04;62.43;101607.28;4911218;28;124705;-69
2021/01/06 05:05:59;;;;;;;20.92;12.77;;;;;;;7.03;62.42;101600.28;4909837;28;123752;-68
2021/01/06 05:08:35;;;;;;;21.10;14.18;;;;;;;7.02;62.40;101603.81;4910407;28;115332;-68
2021/01/06 05:11:10;;;;;;;20.77;13.57;;;;;;;7.02;62.36;101614.34;4896996;28;113878;-69
2021/01/06 05:13:57;;;;;;;20.92;13.90;;;;;;;7.02;62.22;101606.44;4912684;28;124230;-68
2021/01/06 05:16:37;;;;;;;23.85;14.48;;;;;;;7.02;62.39;101603.81;4916476;28;124224;-68
2021/01/06 05:19:16;;;;;;;20.10;14.13;;;;;;;7.02;62.48;101614.34;4915362;28;114384;-69
2021/01/06 05:21:43;;;;;;;23.98;13.88;;;;;;;7.02;62.45;101609.06;4914116;28;114169;-69
2021/01/06 05:24:19;;;;;;;21.27;14.18;;;;;;;7.00;62.35;101605.59;4912994;28;124796;-69
2021/01/06 05:26:52;;;;;;;19.65;13.88;;;;;;;7.01;62.65;101617.88;4897215;28;123763;-68
2021/01/06 05:29:28;;;;;;;18.40;13.15;;;;;;;7.00;62.13;101608.22;4894023;28;113481;-69
2021/01/06 05:31:55;;;;;;;22.17;13.82;;;;;;;7.00;62.43;101605.59;4912414;28;114018;-68
2021/01/06 05:34:24;;;;;;;23.80;14.43;;;;;;;6.99;62.28;101603.88;4902815;28;123094;-68
2021/01/06 05:36:51;;;;;;;20.02;13.98;;;;;;;6.99;62.39;101603.88;4911425;28;123280;-69
2021/01/06 05:39:28;;;;;;;23.83;14.07;;;;;;;7.00;62.27;101600.34;4913916;28;114485;-69
2021/01/06 05:42:09;;;;;;;22.02;14.57;;;;;;;6.99;62.14;101604.75;4881137;28;113487;-68
2021/01/06 05:44:36;;;;;;;23.25;14.13;;;;;;;7.00;61.99;101606.44;4911714;28;123361;-69
2021/01/06 05:47:13;;;;;;;21.33;14.35;;;;;;;7.00;62.23;101613.50;4912518;28;124683;-68
2021/01/06 05:49:40;;;;;;;20.08;13.45;;;;;;;6.99;62.38;101609.16;4909785;28;113621;-69
2021/01/06 05:52:10;;;;;;;21.55;14.00;;;;;;;6.99;62.27;101609.16;4913777;28;113924;-68
2021/01/06 05:54:48;;;;;;;20.65;14.43;;;;;;;7.00;62.40;101605.59;4912552;28;124349;-68
2021/01/06 05:57:27;;;;;;;22.48;14.45;;;;;;;7.01;62.22;101613.47;4907797;28;124159;-68
2021/01/06 06:00:14;;;;;;;22.50;14.30;;;;;;;7.00;62.08;101610.88;4914130;28;115009;-68
2021/01/06 06:02:56;;;;;;;20.30;13.80;;;;;;;7.00;62.10;101606.44;4914218;28;115017;-68
2021/01/06 06:05:54;;;;;;;21.02;14.30;;;;;;;7.00;61.86;101614.34;4909899;28;124163;-70
2021/01/06 06:08:43;;;;;;;21.05;13.48;;;;;;;6.99;62.16;101609.16;4909941;28;123719;-70
2021/01/06 06:11:31;;;;;;;19.45;13.38;;;;;;;7.00;62.01;101616.13;4911217;28;114623;-70
2021/01/06 06:14:16;;;;;;;21.52;13.75;;;;;;;7.01;61.91;101609.97;4912483;28;114309;-70
2021/01/06 06:16:59;;;;;;;20.17;13.63;;;;;;;7.00;61.95;101610.88;4911795;28;122524;-70
2021/01/06 06:19:47;;;;;;;22.40;14.32;;;;;;;7.02;61.89;101614.34;4911710;28;124084;-70
2021/01/06 06:22:30;;;;;;;20.23;13.65;;;;;;;7.01;61.78;101617.88;4912377;28;115036;-71
2021/01/06 06:25:15;;;;;;;23.40;14.45;;;;;;;7.00;61.74;101617.00;4913109;28;114085;-71
2021/01/06 06:28:09;;;;;;;21.52;14.02;;;;;;;6.99;61.82;101619.69;4910731;28;127100;-71
2021/01/06 06:30:53;;;;;;;24.33;14.35;;;;;;;6.98;61.78;101617.94;4895129;28;123416;-71
2021/01/06 06:33:33;;;;;;;23.42;13.90;;;;;;;6.99;61.70;101619.69;4911526;28;113872;-70
2021/01/06 06:36:12;;;;;;;22.23;14.88;;;;;;;7.00;61.63;101616.13;4896487;28;112277;-70
2021/01/06 06:38:41;;;;;;;23.38;13.95;;;;;;;7.01;62.15;101623.16;4911450;28;123958;-71
2021/01/06 06:41:23;;;;;;;20.85;13.63;;;;;;;7.03;62.04;101621.34;4913309;28;123697;-71
2021/01/06 06:44:09;;;;;;;19.90;13.73;;;;;;;7.04;61.97;101623.06;4910751;28;114368;-71
2021/01/06 06:46:50;;;;;;;25.65;14.55;;;;;;;7.06;61.75;101623.91;4912167;28;114001;-71
2021/01/06 06:49:50;;;;;;;22.23;12.98;;;;;;;7.06;61.99;101626.53;4912813;28;124067;-70
2021/01/06 06:52:24;;;;;;;19.33;13.30;;;;;;;7.05;61.94;101624.81;4911659;28;124276;-70
2021/01/06 06:55:28;;;;;;;22.25;13.82;;;;;;;7.02;61.59;101627.50;4911782;28;115388;-70
2021/01/06 06:58:16;;;;;;;19.85;12.80;;;;;;;6.99;61.46;101624.94;4896699;28;113944;-71
2021/01/06 07:00:43;;;;;;;22.67;13.23;;;;;;;6.98;61.44;101628.47;4910769;28;123156;-71
2021/01/06 07:03:13;;;;;;;19.55;13.32;;;;;;;6.96;61.72;101635.53;4896310;28;124187;-72
2021/01/06 07:05:53;;;;;;;21.63;13.20;;;;;;;6.96;61.62;101635.53;4915103;28;114913;-72
2021/01/06 07:08:28;;;;;;;22.58;12.85;;;;;;;6.94;61.41;101638.19;4915023;28;114011;-71
2021/01/06 07:11:23;;;;;;;20.75;13.13;;;;;;;6.93;61.42;101635.56;4905273;28;122329;-71
2021/01/06 07:14:01;;;;;;;19.20;12.57;;;;;;;6.92;61.43;101636.47;4910327;28;123063;-71
2021/01/06 07:16:37;;;;;;;17.73;12.00;;;;;;;6.92;61.45;101639.09;4911105;28;113033;-71
2021/01/06 07:19:14;;;;;;;18.20;12.65;;;;;;;6.92;61.22;101642.59;4912210;28;113953;-71
2021/01/06 07:21:41;;;;;;;16.55;11.38;;;;;;;6.92;61.19;101645.22;4907634;28;124144;-72
2021/01/06 07:24:07;;;;;;;17.73;11.98;;;;;;;6.92;61.16;101647.88;4893988;28;123685;-71
2021/01/06 07:26:59;;;;;;;16.58;11.02;;;;;;;6.92;61.00;101649.63;4900292;28;114311;-69
2021/01/06 07:29:32;;;;;;;15.98;10.57;;;;;;;6.91;61.27;101647.88;4916177;28;113205;-69
2021/01/06 07:32:10;;;;;;;17.85;11.18;;;;;;;6.91;60.90;101653.16;4897975;28;123704;-69
2021/01/06 07:34:42;;;;;;;15.07;10.48;;;;;;;6.92;60.92;101654.91;4897148;28;124344;-69
2021/01/06 07:37:46;;;;;;;14.52;10.80;;;;;;;6.91;60.96;101653.16;4916114;28;114294;-69
2021/01/06 07:40:30;;;;;;;17.15;11.93;;;;;;;6.91;61.08;101661.06;4901549;28;114012;-69
2021/01/06 07:43:20;;;;;;;16.45;11.65;;;;;;;6.89;60.99;101660.22;4896379;28;123682;-69
2021/01/06 07:46:08;;;;;;;17.33;11.55;;;;;;;6.87;60.61;101656.75;4912605;28;123736;-69
2021/01/06 07:48:50;;;;;;;16.83;11.52;;;;;;;6.85;60.94;101664.66;4911842;28;115609;-71
2021/01/06 07:51:34;;;;;;;16.65;11.57;;;;;;;6.83;60.68;101662.03;4914841;28;115077;-71
2021/01/06 07:54:13;;;;;;;17.95;11.93;;;;;;;6.82;60.60;101655.06;4916098;28;126144;-71
2021/01/06 07:56:39;;;;;;;16.63;11.77;;;;;;;6.82;60.92;101657.69;4899344;28;123210;-71
2021/01/06 07:59:23;;;;;;;18.05;12.25;;;;;;;6.79;60.59;101670.88;4914383;28;114180;-71
2021/01/06 08:02:01;;;;;;;16.42;10.85;;;;;;;6.78;60.65;101663.91;4915615;28;114386;-71
2021/01/06 08:04:39;;;;;;;19.48;11.70;;;;;;;6.77;61.08;101667.41;4915125;28;124039;-71
2021/01/06 08:07:07;;;;;;;18.23;11.57;;;;;;;6.75;60.97;101671.84;4917155;28;123326;-71
2021/01/06 08:09:38;;;;;;;15.45;10.88;;;;;;;6.78;60.84;101673.53;4916948;28;114251;-71
2021/01/06 08:12:25;;;;;;;17.95;11.55;;;;;;;6.77;60.74;101672.69;4915613;28;114099;-71
2021/01/06 08:15:08;;;;;;;16.88;11.85;;;;;;;6.77;60.69;101672.69;4914731;28;124741;-71
2021/01/06 08:18:04;;;;;;;16.45;10.93;;;;;;;6.76;60.96;101676.22;4897496;28;123994;-71
2021/01/06 08:20:43;;;;;;;17.75;10.60;;;;;;;6.78;60.58;101669.16;4889796;28;113776;-71
2021/01/06 08:23:28;;;;;;;16.73;10.82;;;;;;;6.79;60.93;101681.44;4907084;28;114032;-71
2021/01/06 08:26:16;;;;;;;16.47;10.80;;;;;;;6.78;60.60;101678.81;4908036;28;124051;-71
2021/01/06 08:28:42;;;;;;;15.70;10.57;;;;;;;6.80;60.68;101683.19;4914758;28;125026;-71
2021/01/06 08:31:15;;;;;;;19.17;10.90;;;;;;;6.79;60.61;101681.44;4916489;28;115120;-72
2021/01/06 08:33:47;;;;;;;16.90;11.00;;;;;;;6.79;60.53;101681.44;4892919;28;113202;-71
2021/01/06 08:36:21;;;;;;;19.30;11.57;;;;;;;6.78;60.04;101684.97;4915695;28;124096;-72
2021/01/06 08:39:03;;;;;;;16.58;10.82;;;;;;;6.77;60.48;101677.94;4914867;28;123798;-71
2021/01/06 08:41:30;;;;;;;15.55;10.05;;;;;;;6.74;60.03;101683.28;4870947;28;114304;-72
2021/01/06 08:43:58;;;;;;;17.92;11.05;;;;;;;6.73;59.98;101676.25;4950490;22;115172;-66
2021/01/06 08:46:35;;;;;;;17.17;10.93;;;;;;;6.73;60.17;101681.53;4939777;28;124279;-66
2021/01/06 08:49:25;;;;;;;19.05;11.23;;;;;;;6.72;60.13;101684.19;4954053;28;124163;-68
2021/01/06 08:51:54;;;;;;;17.35;11.07;;;;;;;6.71;60.05;101683.31;4954022;28;115367;-67
2021/01/06 08:54:32;;;;;;;16.17;11.05;;;;;;;6.70;59.98;101686.84;4944515;28;113695;-67
2021/01/06 08:57:04;;;;;;;15.73;10.70;;;;;;;6.71;59.94;101688.59;4919969;28;124596;-67
2021/01/06 08:59:34;;;;;;;17.63;11.02;;;;;;;6.71;60.11;101687.72;4916612;28;123528;-67
2021/01/06 09:02:10;;;;;;;16.65;11.52;;;;;;;6.72;59.91;101685.03;4934843;28;114129;-67
2021/01/06 09:04:40;;;;;;;16.73;11.43;;;;;;;6.73;60.18;101694.69;4933266;28;114623;-69
2021/01/06 09:07:24;;;;;;;18.02;11.40;;;;;;;6.72;60.21;101690.31;4933561;28;124093;-67
2021/01/06 09:09:57;;;;;;;19.77;11.00;;;;;;;6.73;60.01;101681.53;4934441;28;123682;-68
2021/01/06 09:12:41;;;;;;;15.77;10.63;;;;;;;6.76;60.07;101692.03;4916582;28;114522;-68
2021/01/06 09:15:21;;;;;;;15.90;10.27;;;;;;;6.76;60.26;101686.75;4916667;28;112945;-68
2021/01/06 09:18:01;;;;;;;16.45;10.48;;;;;;;6.77;60.04;101687.63;4919599;28;124228;-68
2021/01/06 09:20:36;;;;;;;16.48;10.20;;;;;;;6.76;59.99;101697.28;4914427;28;123593;-68
2021/01/06 09:23:03;;;;;;;17.80;11.43;;;;;;;6.76;59.88;101684.13;4918675;28;115027;-68
2021/01/06 09:25:31;;;;;;;16.67;10.45;;;;;;;6.76;59.99;101685.88;4921923;28;114141;-68
2021/01/06 09:28:00;;;;;;;16.60;11.20;;;;;;;6.74;59.93;101688.53;4925752;28;123171;-68
2021/01/06 09:30:37;;;;;;;16.63;10.77;;;;;;;6.73;59.85;101686.78;4904615;28;123060;-68
2021/01/06 09:33:29;;;;;;;16.30;11.13;;;;;;;6.72;60.25;101689.44;4900701;28;114348;-68
2021/01/06 09:35:57;;;;;;;17.17;11.07;;;;;;;6.75;60.17;101695.53;4913468;28;115241;-68
2021/01/06 09:38:35;;;;;;;18.77;10.38;;;;;;;6.74;60.03;101699.06;4885730;28;123307;-68
2021/01/06 09:41:07;;;;;;;18.70;10.55;;;;;;;6.76;60.13;101692.03;4918820;28;124001;-68
2021/01/06 09:43:37;;;;;;;15.30;10.32;;;;;;;6.79;60.27;101697.22;4917511;28;114087;-68
2021/01/06 09:46:15;;;;;;;17.27;10.80;;;;;;;6.78;59.89;101695.50;4919675;28;114243;-68
2021/01/06 09:48:47;;;;;;;16.05;10.77;;;;;;;6.79;60.06;101699.00;4926984;28;124323;-68
2021/01/06 09:51:18;;;;;;;17.00;10.65;;;;;;;6.80;59.84;101698.97;4924640;28;123961;-68
2021/01/06 09:53:48;;;;;;;16.00;10.32;;;;;;;6.82;60.00;101702.44;4913152;28;112894;-68
2021/01/06 09:56:17;;;;;;;17.08;11.98;;;;;;;6.83;59.88;101698.91;4904507;28;114556;-68
2021/01/06 09:58:47;;;;;;;15.13;11.20;;;;;;;6.85;59.54;101690.13;4913118;28;124722;-68
2021/01/06 10:01:27;;;;;;;18.63;11.00;;;;;;;6.83;59.60;101693.63;4904208;28;123879;-68
2021/01/06 10:03:55;;;;;;;18.25;11.10;;;;;;;6.81;59.80;101695.44;4910030;28;112551;-68
2021/01/06 10:06:38;;;;;;;18.02;11.25;;;;;;;6.78;59.51;101691.97;4914186;28;113863;-68
2021/01/06 10:09:33;;;;;;;18.77;11.43;;;;;;;6.74;59.54;101677.13;4912041;28;124070;-68
2021/01/06 10:12:30;;;;;;;15.73;10.20;;;;;;;6.71;59.73;101683.31;4896658;28;122062;-68
2021/01/06 10:15:21;;;;;;;16.38;11.07;;;;;;;6.72;59.70;101687.66;4898024;28;113261;-68
2021/01/06 10:18:00;;;;;;;18.95;10.50;;;;;;;6.73;59.72;101681.53;4913116;28;113862;-68
2021/01/06 10:20:40;;;;;;;15.52;10.18;;;;;;;6.75;60.00;101685.00;4924408;28;123968;-68
2021/01/06 10:23:33;;;;;;;17.85;10.93;;;;;;;6.76;59.87;101681.50;4910054;28;124058;-67
2021/01/06 10:26:26;;;;;;;16.67;10.60;;;;;;;6.78;60.03;101679.69;4894955;28;115284;-67
2021/01/06 10:28:53;;;;;;;15.82;11.02;;;;;;;6.79;59.63;101670.88;4913430;28;114998;-68
2021/01/06 10:31:25;;;;;;;17.40;9.48;;;;;;;6.80;59.81;101677.91;4907698;28;123453;-68
2021/01/06 10:34:10;;;;;;;18.05;10.65;;;;;;;6.80;59.63;101667.38;4922164;28;124603;-68
2021/01/06 10:36:58;;;;;;;15.37;8.57;;;;;;;6.77;59.63;101667.41;4929694;28;115077;-68
2021/01/06 10:39:46;;;;;;;13.70;8.73;;;;;;;6.77;59.54;101656.88;4900566;28;114051;-68
2021/01/06 10:42:16;;;;;;;12.88;9.30;;;;;;;6.79;59.08;101660.34;4901676;28;123172;-68
2021/01/06 10:44:56;;;;;;;14.68;9.57;;;;;;;6.77;59.45;101659.53;4906910;28;124233;-67
2021/01/06 10:47:32;;;;;;;13.95;8.95;;;;;;;6.81;59.55;101657.72;4920144;28;114773;-68
2021/01/06 10:50:22;;;;;;;15.32;9.75;;;;;;;6.83;59.26;101651.50;4922806;28;114285;-68
2021/01/06 10:53:13;;;;;;;14.65;8.90;;;;;;;6.83;59.31;101656.78;4923457;28;124330;-68
2021/01/06 10:56:12;;;;;;;13.38;9.15;;;;;;;6.85;59.13;101653.25;4911531;28;123020;-68
2021/01/06 10:58:50;;;;;;;14.15;9.27;;;;;;;6.87;59.13;101648.84;4923419;28;114362;-67
2021/01/06 11:01:42;;;;;;;13.20;9.15;;;;;;;6.89;59.25;101644.41;4921129;28;114036;-68
2021/01/06 11:04:29;;;;;;;17.48;9.50;;;;;;;6.92;59.12;101639.09;4923380;28;124407;-68
2021/01/06 11:07:40;;;;;;;13.18;9.27;;;;;;;6.95;59.58;101639.03;4916037;28;124575;-67
2021/01/06 11:10:49;;;;;;;14.15;9.63;;;;;;;7.00;59.52;101637.19;4898284;28;114040;-68
2021/01/06 11:13:38;;;;;;;13.68;9.45;;;;;;;7.06;59.33;101631.81;4885861;28;113028;-68
2021/01/06 11:16:14;;;;;;;14.48;9.10;;;;;;;7.08;59.36;101630.03;4919083;28;123996;-68
2021/01/06 11:18:46;;;;;;;13.55;9.00;;;;;;;7.13;59.05;101624.69;4919952;28;123908;-68
2021/01/06 11:21:19;;;;;;;12.98;9.45;;;;;;;7.15;58.98;101626.38;4917734;28;115352;-68
2021/01/06 11:23:50;;;;;;;13.82;9.75;;;;;;;7.17;58.97;101624.59;4921191;28;115446;-68
2021/01/06 11:26:32;;;;;;;14.82;10.38;;;;;;;7.20;58.69;101624.53;4908032;28;123769;-67
2021/01/06 11:29:10;;;;;;;12.63;8.77;;;;;;;7.20;58.91;101614.00;4903526;28;122929;-68
2021/01/06 11:31:39;;;;;;;15.68;10.15;;;;;;;7.21;58.98;101615.75;4918203;28;114672;-68
2021/01/06 11:34:09;;;;;;;13.77;9.90;;;;;;;7.24;58.29;101624.50;4922921;28;113900;-68
2021/01/06 11:36:51;;;;;;;12.82;9.80;;;;;;;7.22;58.78;101617.47;4919035;28;123428;-68
2021/01/06 11:39:38;;;;;;;13.35;9.15;;;;;;;7.21;58.51;101610.50;4904640;28;124165;-68
2021/01/06 11:42:05;;;;;;;16.48;9.43;;;;;;;7.24;58.31;101609.56;4911626;28;114460;-67
2021/01/06 11:44:31;;;;;;;14.57;9.88;;;;;;;7.22;58.33;101601.66;4918148;28;113674;-67
2021/01/06 11:47:08;;;;;;;15.07;9.90;;;;;;;7.22;58.34;101601.66;4913105;28;123993;-67
2021/01/06 11:49:34;;;;;;;15.80;9.80;;;;;;;7.25;58.47;101599.88;4902084;28;122720;-68
2021/01/06 11:52:25;;;;;;;13.65;9.27;;;;;;;7.25;58.87;101599.88;4921769;28;114106;-68